Dundee, Illinois
Current Conditions -  °F | °C
As of 12:52 PM on Monday 20 Oct 2014 (Local Time) from KDPA Reporting Station
Clear Clear  
Wind Chill: 65°   Ceiling: Unl
Heat Index: 65°   Visibility: 10mi
Dew Point: 47°   Wind: 9mph
Humidity: 52%   Direction: 340°NNW
Pressure: 29.84"   Gusts: NA
Location:  42.1°N, 88.29°W
Report Text: KDPA 201752Z 34008KT 10SM CLR 18/08 A2984 RMK AO2 SLP104 T01830083 10183 20067 58001
Loading
Personal Weather Stations






























Interactive Weather Map
Tropical Storm Tracking
New forecast layout! Learn more

10-Day Weather Forecast

Advertisements
Track Severe Weather on mobile